Tsuyama, Japan

4:50 PM JST on July 13, 2014 (GMT +0900)
Tottori (RJOR) Elev 56 ft | 35.53 °N, 134.16 °E | Change Station

Current weather conditions updated 50 minutes ago

Light Rain Showers
Light Showers Rain Mist
72 °F
Feels Like 72 °F
N
6
Wind Variable Wind from NW

Tomorrow is forecast to be Much Warmer than today.

Today
High -- | Low -- °F
--% Chance of Precip.
Yesterday
High -- | Low -- °F
Precip. -- in
4:59 AM 7:19 PM
Full, 99% visible
Pressure 29.56 in
Visibility 3.7 miles
Clouds Few 300 ft
Scattered Clouds 1000 ft
Mostly Cloudy 2500 ft
Dew Point 70 °F
Humidity 94%
Rainfall 0.00 in
Snow Depth Not available.
UV 3 out of 12
Pollen Not available.
Air Quality Not available.
Flu Activity Not available.
METAR RJOR 130700Z 31005KT 6000 -SHRA BR FEW003 SCT010 BKN025 22/21 Q1001

More Conditions Fewer Conditions

Pressure 29.56 in
Visibility 3.7 miles
Clouds Few 300 ft
Scattered Clouds 1000 ft
Mostly Cloudy 2500 ft
Dew Point 70 °F
Humidity 94%
Rainfall 0.00 in
Snow Depth Not available.
UV 3 out of 12
Pollen Not available.
Air Quality Not available.
Flu Activity Not available.
METAR RJOR 130700Z 31005KT 6000 -SHRA BR FEW003 SCT010 BKN025 22/21 Q1001

More Conditions Fewer Conditions

10-Day Weather Forecast

Almanac

Astronomy

Jul. 13, 2014 Rise Set
Actual Time 4:59 AM JST 7:19 PM JST
Civil Twilight 4:30 AM JST 7:48 PM JST
Nautical Twilight 3:54 AM JST 8:24 PM JST
Astronomical Twilight 3:15 AM JST 9:03 PM JST
Moon 7:44 PM JST 5:41 AM JST
Length of Visible Light 15h 18m
Length of Day
14h 20m
Tomorrow will be 1m 2s shorter.
Full, 99% of the Moon is Illuminated
Today
Full
Jul 18
Last Quarter
Jul 26
New
Aug 3
First Quarter
Aug 10
Full

Yesterday's Extremes

Country Highs Country Lows

Community

WunderPhotos

Upload Photos

1,733,141 photos uploaded!

Nearby

Snow Depth

Not available.

Earthquake Activity

City Distance Mag. Time & Date
No recent earthquake activity has been reported nearby.
Minimum magnitude displayed is 2.5.

Coastal Water Temperatures

Place Temperature
No Stations Reporting

Nearby Weather Stations

There are no personal weather stations in this area.